Time;durP1;ratioP1;P1;durP2;ratioP2;P2;SDS_P1;SDS_P2;PMS_P1;PMS_P2;Temp;Humidity;BMP_temperature;BMP_pressure;BME280_temperature;BME280_humidity;BME280_pressure;Samples;Min_cycle;Max_cycle;Signal;HPM_P1;HPM_P2
2023/10/18 00:00:57;;;;;;;3.78;1.10;;;;;;;2.71;55.75;101805.75;4976087;28;20045;-70
2023/10/18 00:03:30;;;;;;;3.42;1.85;;;;;;;2.60;55.80;101797.97;4941724;28;20072;-69
2023/10/18 00:06:08;;;;;;;3.78;1.60;;;;;;;2.60;55.95;101792.78;4981304;28;20116;-72
2023/10/18 00:08:33;;;;;;;2.50;1.80;;;;;;;2.60;55.86;101792.78;4968168;28;21960;-71
2023/10/18 00:11:01;;;;;;;3.65;2.28;;;;;;;2.53;55.93;101789.31;4986516;28;20045;-69
2023/10/18 00:13:27;;;;;;;4.18;2.25;;;;;;;2.73;55.96;101799.78;4976517;28;20065;-70
2023/10/18 00:16:03;;;;;;;2.38;1.52;;;;;;;2.78;55.73;101797.22;4985109;28;20464;-69
2023/10/18 00:18:28;;;;;;;2.97;1.95;;;;;;;2.73;55.90;101798.91;4977345;28;20050;-69
2023/10/18 00:20:59;;;;;;;2.28;1.63;;;;;;;2.70;55.41;101793.72;4965519;28;20121;-70
2023/10/18 00:23:27;;;;;;;2.97;1.50;;;;;;;2.65;55.32;101796.28;4978898;28;20137;-73
2023/10/18 00:25:55;;;;;;;1.73;1.00;;;;;;;2.59;55.34;101791.06;4981192;28;20048;-70
2023/10/18 00:28:21;;;;;;;2.80;1.58;;;;;;;2.48;55.49;101788.38;4979079;28;20030;-70
2023/10/18 00:31:10;;;;;;;1.98;1.15;;;;;;;2.43;55.52;101790.06;4978157;28;20038;-71
2023/10/18 00:33:35;;;;;;;2.33;1.02;;;;;;;2.40;55.62;101782.31;4979771;28;20286;-70
2023/10/18 00:36:01;;;;;;;2.60;1.60;;;;;;;2.48;55.85;101782.34;4987216;28;20489;-71
2023/10/18 00:38:28;;;;;;;3.20;1.98;;;;;;;2.54;55.66;101790.16;4970410;28;20076;-71
2023/10/18 00:40:56;;;;;;;2.75;1.52;;;;;;;2.51;55.57;101779.78;4975860;28;20033;-70
2023/10/18 00:43:26;;;;;;;2.97;1.88;;;;;;;2.57;55.70;101785.00;4962773;28;20050;-70
2023/10/18 00:45:54;;;;;;;2.92;1.70;;;;;;;2.50;55.27;101785.81;4973184;28;20065;-70
2023/10/18 00:48:26;;;;;;;2.45;1.75;;;;;;;2.44;55.56;101784.03;4983141;28;20120;-72
2023/10/18 00:50:54;;;;;;;2.42;1.35;;;;;;;2.46;55.38;101778.91;4977780;28;20719;-71
2023/10/18 00:53:22;;;;;;;3.50;1.48;;;;;;;2.47;55.25;101776.34;4977584;28;20038;-73
2023/10/18 00:56:04;;;;;;;3.38;1.85;;;;;;;2.44;55.35;101770.28;4978459;28;20038;-73
2023/10/18 00:58:31;;;;;;;4.03;2.00;;;;;;;2.55;55.44;101771.22;4976092;28;20042;-68
2023/10/18 01:01:01;;;;;;;2.17;1.80;;;;;;;2.53;56.05;101768.66;4976650;28;20121;-71
2023/10/18 01:03:35;;;;;;;3.75;1.35;;;;;;;2.58;56.21;101773.84;4984489;28;20128;-69
2023/10/18 01:06:05;;;;;;;3.60;1.90;;;;;;;2.62;56.08;101767.84;4979600;28;20117;-69
2023/10/18 01:08:32;;;;;;;3.50;1.70;;;;;;;2.61;55.42;101758.38;4961203;28;20062;-69
2023/10/18 01:11:04;;;;;;;3.05;1.73;;;;;;;2.46;55.65;101753.09;4970157;28;20052;-67
2023/10/18 01:13:37;;;;;;;;;;;;;;;2.39;55.93;101756.47;4983344;28;20559;-67
2023/10/18 01:16:13;;;;;;;1.67;1.25;;;;;;;2.37;55.69;101758.19;4984511;28;19917;-68
2023/10/18 01:18:42;;;;;;;2.88;1.63;;;;;;;2.30;55.56;101752.97;4976435;28;20106;-68
2023/10/18 01:21:16;;;;;;;2.30;1.48;;;;;;;2.22;56.09;101744.31;4978480;28;20041;-68
2023/10/18 01:23:51;;;;;;;2.70;1.35;;;;;;;2.24;55.98;101740.03;4979303;28;20038;-68
2023/10/18 01:26:21;;;;;;;3.70;1.55;;;;;;;2.22;57.34;101739.16;4975923;28;20041;-64
2023/10/18 01:28:48;;;;;;;14.40;2.67;;;;;;;2.40;58.13;101732.41;4985103;28;20033;-64
2023/10/18 01:31:14;;;;;;;4.53;1.80;;;;;;;2.55;58.08;101729.94;4979933;28;20057;-64
2023/10/18 01:33:43;;;;;;;2.63;2.08;;;;;;;2.66;58.45;101723.13;4979297;28;20394;-66
2023/10/18 01:36:12;;;;;;;3.25;2.10;;;;;;;2.76;58.05;101717.19;4977712;28;20038;-65
2023/10/18 01:38:42;;;;;;;3.60;1.90;;;;;;;2.83;58.34;101714.66;4978588;28;21922;-66
2023/10/18 01:41:09;;;;;;;2.40;1.60;;;;;;;2.98;58.32;101704.41;4976610;28;20045;-66
2023/10/18 01:43:37;;;;;;;5.75;1.83;;;;;;;3.00;58.39;101714.72;4974996;28;20072;-66
2023/10/18 01:46:08;;;;;;;3.72;1.48;;;;;;;3.09;58.03;101709.59;4976022;28;20181;-67
2023/10/18 01:48:38;;;;;;;7.03;1.95;;;;;;;3.05;58.19;101713.03;4975890;28;20127;-66
2023/10/18 01:51:05;;;;;;;3.47;1.70;;;;;;;3.08;57.93;101711.31;4980460;28;20136;-67
2023/10/18 01:53:36;;;;;;;4.75;1.90;;;;;;;3.06;58.27;101713.03;4981163;28;20132;-65
2023/10/18 01:56:02;;;;;;;3.53;1.75;;;;;;;3.06;58.30;101705.28;4983455;28;20033;-65
2023/10/18 01:58:29;;;;;;;7.30;2.03;;;;;;;3.04;58.42;101707.00;4978664;28;20057;-65
2023/10/18 02:00:56;;;;;;;3.28;2.83;;;;;;;3.04;58.12;101696.66;4980048;28;20522;-66
2023/10/18 02:03:23;;;;;;;3.72;1.98;;;;;;;3.02;58.50;101700.94;4976610;28;20038;-65
2023/10/18 02:05:49;;;;;;;3.45;2.20;;;;;;;3.00;58.17;101694.06;4970837;28;20026;-66
2023/10/18 02:08:15;;;;;;;4.90;2.00;;;;;;;2.97;58.13;101690.59;4985817;28;20068;-67
2023/10/18 02:10:42;;;;;;;4.95;2.17;;;;;;;2.90;58.78;101696.59;4990186;28;20042;-67
2023/10/18 02:13:13;;;;;;;3.60;2.15;;;;;;;2.92;58.54;101683.69;4976125;28;20045;-65
2023/10/18 02:15:41;;;;;;;6.72;2.50;;;;;;;2.93;58.70;101685.41;4977126;28;20627;-68
2023/10/18 02:18:08;;;;;;;7.25;2.63;;;;;;;2.90;58.58;101696.59;4976068;28;20049;-68
2023/10/18 02:20:53;;;;;;;5.10;2.45;;;;;;;2.90;58.63;101693.16;4982272;28;20505;-68
2023/10/18 02:23:21;;;;;;;5.75;2.88;;;;;;;2.88;58.63;101694.88;4978786;28;20041;-66
2023/10/18 02:25:51;;;;;;;3.35;2.20;;;;;;;2.88;58.43;101677.66;4990891;28;20061;-66
2023/10/18 02:28:24;;;;;;;7.22;2.80;;;;;;;2.87;58.20;101677.66;4981299;28;20261;-66
2023/10/18 02:30:55;;;;;;;5.63;2.00;;;;;;;2.77;58.16;101682.75;4977527;28;20030;-67
2023/10/18 02:33:24;;;;;;;6.97;2.55;;;;;;;2.74;58.20;101680.16;4978550;28;20227;-67
2023/10/18 02:35:49;;;;;;;3.95;1.25;;;;;;;2.72;58.64;101673.28;4977776;28;20030;-67
2023/10/18 02:38:15;;;;;;;10.32;2.10;;;;;;;2.72;58.77;101668.09;4977730;28;20071;-67
2023/10/18 02:40:40;;;;;;;9.13;2.13;;;;;;;2.68;58.59;101669.78;4975181;28;20656;-69
2023/10/18 02:43:11;;;;;;;6.30;2.95;;;;;;;2.76;58.74;101664.69;4983446;28;20030;-70
2023/10/18 02:45:39;;;;;;;7.18;1.60;;;;;;;2.76;58.78;101668.13;4975871;28;20069;-67
2023/10/18 02:48:08;;;;;;;8.88;2.45;;;;;;;2.76;58.97;101662.97;4975280;28;20056;-68
2023/10/18 02:50:34;;;;;;;5.60;2.75;;;;;;;2.80;58.38;101668.13;4979356;28;20060;-67
2023/10/18 02:53:00;;;;;;;3.70;2.33;;;;;;;2.79;58.49;101669.00;4966418;28;20092;-67
2023/10/18 02:55:28;;;;;;;3.80;2.28;;;;;;;2.79;57.97;101669.84;4979973;28;20135;-68
2023/10/18 02:57:53;;;;;;;6.22;2.22;;;;;;;2.68;57.75;101674.97;4975438;28;20440;-66
2023/10/18 03:00:20;;;;;;;4.88;2.50;;;;;;;2.52;57.63;101671.44;4977692;28;20041;-65
2023/10/18 03:02:48;;;;;;;3.40;2.13;;;;;;;2.50;58.58;101673.13;4974244;28;20046;-65
2023/10/18 03:05:18;;;;;;;9.38;2.80;;;;;;;2.51;58.89;101658.50;4966392;28;20482;-68
2023/10/18 03:07:43;;;;;;;3.55;2.30;;;;;;;2.55;58.80;101660.25;4970970;28;20777;-64
2023/10/18 03:10:12;;;;;;;3.03;1.83;;;;;;;2.47;58.05;101651.63;4977717;28;20038;-68
2023/10/18 03:12:38;;;;;;;5.25;2.42;;;;;;;2.46;58.14;101655.03;4971519;28;20049;-68
2023/10/18 03:15:09;;;;;;;2.90;1.83;;;;;;;2.44;58.37;101656.75;4979095;28;20264;-66
2023/10/18 03:17:37;;;;;;;2.50;1.75;;;;;;;2.52;58.21;101658.53;4961276;28;20038;-68
2023/10/18 03:20:16;;;;;;;3.92;1.67;;;;;;;2.54;58.02;101653.38;4976414;28;20137;-67
2023/10/18 03:22:43;;;;;;;3.15;1.60;;;;;;;2.50;57.66;101651.63;4970700;28;20057;-68
2023/10/18 03:25:12;;;;;;;5.68;1.77;;;;;;;2.43;57.82;101655.03;4983790;28;20045;-67
2023/10/18 03:27:41;;;;;;;3.88;1.38;;;;;;;2.34;57.70;101654.09;4970420;28;20034;-64
2023/10/18 03:30:20;;;;;;;2.22;1.83;;;;;;;2.19;57.69;101651.41;4978986;28;20396;-66
2023/10/18 03:32:53;;;;;;;2.45;1.70;;;;;;;2.04;57.74;101651.28;4963136;28;20912;-66
2023/10/18 03:35:22;;;;;;;3.17;1.60;;;;;;;1.98;57.84;101653.84;4982062;28;20560;-66
2023/10/18 03:37:48;;;;;;;2.60;1.45;;;;;;;1.93;57.66;101654.66;4965501;28;20515;-66
2023/10/18 03:40:20;;;;;;;1.92;1.50;;;;;;;1.92;57.88;101646.91;4969001;28;20038;-69
2023/10/18 03:42:52;;;;;;;5.15;1.80;;;;;;;1.92;57.61;101646.91;4980252;28;20035;-70
2023/10/18 03:45:21;;;;;;;3.28;1.63;;;;;;;1.84;57.50;101641.69;4982851;28;20049;-69
2023/10/18 03:48:01;;;;;;;2.22;1.27;;;;;;;1.83;57.54;101641.69;4973961;28;20050;-70
2023/10/18 03:50:38;;;;;;;5.00;1.98;;;;;;;1.79;57.52;101634.75;4980166;28;20648;-69
2023/10/18 03:53:06;;;;;;;2.53;1.35;;;;;;;1.74;57.69;101632.16;4981280;28;20108;-69
2023/10/18 03:55:38;;;;;;;3.08;1.60;;;;;;;1.76;58.31;101620.13;4979612;28;20164;-70
2023/10/18 03:58:05;;;;;;;;;;;;;;;1.91;59.27;101615.13;4962770;28;20136;-70
2023/10/18 04:00:46;;;;;;;3.80;2.47;;;;;;;2.08;60.21;101606.63;4981194;28;20132;-71
2023/10/18 04:03:12;;;;;;;7.90;2.25;;;;;;;2.32;59.73;101606.78;4978778;28;20337;-71
2023/10/18 04:05:45;;;;;;;2.50;1.52;;;;;;;2.50;59.70;101605.19;4979279;28;20042;-69
2023/10/18 04:08:19;;;;;;;2.58;1.92;;;;;;;2.58;59.83;101606.09;4984466;28;20260;-69
2023/10/18 04:11:06;;;;;;;2.58;1.85;;;;;;;2.67;59.41;101595.81;4975607;28;20030;-69
2023/10/18 04:13:31;;;;;;;6.22;2.45;;;;;;;2.63;59.61;101598.38;4975276;28;20077;-69
2023/10/18 04:15:59;;;;;;;7.30;2.28;;;;;;;2.61;59.13;101593.19;4972040;28;20151;-68
2023/10/18 04:18:35;;;;;;;5.65;3.13;;;;;;;2.61;59.36;101585.44;4978301;28;20046;-69
2023/10/18 04:21:05;;;;;;;4.00;2.72;;;;;;;2.63;59.50;101575.13;4980121;28;20030;-68
2023/10/18 04:23:31;;;;;;;5.75;1.83;;;;;;;2.70;59.54;101572.56;4974320;28;20073;-71
2023/10/18 04:26:10;;;;;;;7.10;2.25;;;;;;;2.72;59.17;101568.28;4979379;28;20069;-71
2023/10/18 04:28:39;;;;;;;4.85;2.03;;;;;;;2.73;59.11;101570.03;4979653;28;20034;-68
2023/10/18 04:31:08;;;;;;;7.03;2.03;;;;;;;2.71;59.22;101568.28;4979134;28;20038;-71
2023/10/18 04:33:35;;;;;;;7.88;2.80;;;;;;;2.70;59.20;101571.72;4965021;28;20038;-71
2023/10/18 04:36:12;;;;;;;4.10;2.55;;;;;;;2.62;58.76;101556.19;4978913;28;20033;-71
2023/10/18 04:38:46;;;;;;;3.75;2.17;;;;;;;2.57;59.47;101558.75;4990804;28;20046;-71
2023/10/18 04:43:50;;;;;;;6.03;2.55;;;;;;;2.69;59.34;101555.38;4977978;28;20085;-71
2023/10/18 04:46:18;;;;;;;5.88;2.85;;;;;;;2.73;58.84;101553.66;4979726;28;20513;-69
2023/10/18 04:54:07;;;;;;;5.63;3.17;;;;;;;2.66;58.83;101550.19;4978784;28;20045;-70
2023/10/18 04:56:39;;;;;;;6.68;3.25;;;;;;;2.50;59.15;101546.69;4962392;28;20061;-69
2023/10/18 04:59:11;;;;;;;7.20;3.38;;;;;;;2.62;58.58;101543.28;4977856;28;20125;-70
2023/10/18 05:04:32;;;;;;;5.45;3.25;;;;;;;2.69;58.53;101534.72;4978266;28;19948;-69
2023/10/18 05:09:41;;;;;;;9.30;3.80;;;;;;;2.53;58.60;101527.75;4975041;28;20083;-70
2023/10/18 05:17:32;;;;;;;7.68;3.90;;;;;;;2.67;58.95;101535.59;4980483;28;20052;-72
2023/10/18 05:22:47;;;;;;;10.57;4.28;;;;;;;2.77;59.20;101533.00;4989298;28;20318;-71
2023/10/18 05:27:46;;;;;;;12.38;4.85;;;;;;;2.80;59.58;101526.13;4974140;28;20269;-73
2023/10/18 05:30:26;;;;;;;13.90;5.90;;;;;;;2.85;59.24;101514.97;4992372;28;20068;-73
2023/10/18 05:35:29;;;;;;;8.93;5.57;;;;;;;2.98;59.11;101513.28;4980820;28;20421;-66
2023/10/18 05:43:12;;;;;;;8.13;4.65;;;;;;;2.93;58.94;101512.41;4977960;28;20087;-67
2023/10/18 05:45:40;;;;;;;10.30;4.82;;;;;;;2.87;59.25;101510.69;4990723;28;20477;-67
2023/10/18 05:48:13;;;;;;;8.75;5.05;;;;;;;2.87;58.81;101504.66;4976123;28;20512;-67
2023/10/18 05:50:49;;;;;;;10.27;4.18;;;;;;;2.83;58.80;101505.50;4975206;28;20030;-68
2023/10/18 05:53:18;;;;;;;11.68;5.93;;;;;;;2.84;59.35;101509.81;4977358;28;20133;-67
2023/10/18 05:55:52;;;;;;;8.85;4.32;;;;;;;2.83;58.71;101511.53;4976401;28;20036;-68
2023/10/18 05:58:26;;;;;;;8.18;4.72;;;;;;;2.88;58.80;101503.78;4976542;28;20054;-67
2023/10/18 06:00:55;;;;;;;12.68;6.35;;;;;;;2.80;59.06;101498.63;4974232;28;20038;-67
2023/10/18 06:03:22;;;;;;;10.85;5.80;;;;;;;2.82;58.81;101504.63;4978678;28;20466;-67
2023/10/18 06:05:51;;;;;;;12.82;5.88;;;;;;;2.85;59.14;101503.78;4975436;28;20034;-67
2023/10/18 06:08:22;;;;;;;13.63;6.50;;;;;;;2.84;59.42;101495.16;4984859;28;20493;-67
2023/10/18 06:10:49;;;;;;;10.25;5.65;;;;;;;2.81;59.20;101497.75;4981738;28;20481;-68
2023/10/18 06:13:20;;;;;;;14.10;6.90;;;;;;;2.82;59.49;101499.47;4985179;28;20053;-68
2023/10/18 06:15:50;;;;;;;17.03;6.23;;;;;;;2.95;59.26;101496.03;4974094;28;20409;-70
2023/10/18 06:18:31;;;;;;;11.02;5.65;;;;;;;2.91;59.55;101484.00;4974746;28;20103;-69
2023/10/18 06:21:11;;;;;;;11.77;6.65;;;;;;;2.88;59.66;101489.16;4976942;28;20704;-69
2023/10/18 06:23:36;;;;;;;13.13;6.13;;;;;;;3.10;59.47;101489.19;4978180;28;20111;-68
2023/10/18 06:28:53;;;;;;;16.75;6.50;;;;;;;3.24;59.23;101482.31;4974878;28;20049;-69
2023/10/18 06:31:20;;;;;;;17.40;8.13;;;;;;;3.31;59.38;101472.88;4975511;28;20026;-72
2023/10/18 06:33:51;;;;;;;12.13;5.95;;;;;;;3.38;58.88;101472.88;4974978;28;20440;-71
2023/10/18 06:36:21;;;;;;;17.13;7.47;;;;;;;3.47;58.76;101473.72;4976759;28;20485;-69
2023/10/18 06:38:48;;;;;;;15.15;6.38;;;;;;;3.57;58.40;101473.72;4972356;28;20345;-69
2023/10/18 06:41:21;;;;;;;15.63;7.50;;;;;;;3.62;58.31;101470.25;4979811;28;20054;-70
2023/10/18 06:43:52;;;;;;;13.60;6.55;;;;;;;3.56;58.25;101476.28;4975017;28;20042;-72
2023/10/18 06:46:32;;;;;;;13.70;7.50;;;;;;;3.72;58.13;101475.41;4964710;28;20108;-70
2023/10/18 06:48:58;;;;;;;14.13;7.60;;;;;;;3.77;58.19;101473.69;4986899;28;20433;-70
2023/10/18 06:51:33;;;;;;;14.38;7.20;;;;;;;4.00;57.96;101471.03;4977173;28;20393;-69
2023/10/18 06:54:05;;;;;;;12.18;6.35;;;;;;;4.05;57.05;101472.75;4977264;28;20049;-72
2023/10/18 06:56:39;;;;;;;10.93;6.40;;;;;;;4.15;56.93;101464.09;4979090;28;20534;-72
2023/10/18 06:59:09;;;;;;;18.65;6.38;;;;;;;4.16;56.72;101473.56;4978643;28;20066;-72
2023/10/18 07:01:54;;;;;;;14.90;6.35;;;;;;;4.25;56.72;101468.34;4976228;28;20030;-72
2023/10/18 07:04:27;;;;;;;12.70;7.57;;;;;;;4.34;56.42;101473.50;4968799;28;20038;-70
2023/10/18 07:06:54;;;;;;;15.75;6.50;;;;;;;4.57;56.30;101464.78;4971286;28;20030;-70
2023/10/18 07:09:26;;;;;;;16.25;6.70;;;;;;;4.74;55.90;101464.66;4981321;28;20101;-72
2023/10/18 07:11:57;;;;;;;14.50;5.93;;;;;;;4.91;54.72;101464.59;4972899;28;20044;-72
2023/10/18 07:14:25;;;;;;;13.38;6.45;;;;;;;5.14;54.67;101465.25;4978470;28;20473;-72
2023/10/18 07:17:00;;;;;;;12.85;6.45;;;;;;;5.74;53.06;101467.31;4974165;28;20077;-72
2023/10/18 07:19:27;;;;;;;11.98;6.43;;;;;;;6.00;52.25;101463.59;4973418;28;20043;-73
2023/10/18 07:21:54;;;;;;;11.93;6.03;;;;;;;6.09;51.96;101460.91;4974776;28;20156;-72
2023/10/18 07:27:17;;;;;;;12.02;6.20;;;;;;;6.66;50.25;101467.97;4978011;28;20056;-73
2023/10/18 07:29:47;;;;;;;10.77;5.80;;;;;;;6.89;48.73;101452.91;4975202;28;20497;-72
2023/10/18 07:32:13;;;;;;;11.90;5.47;;;;;;;7.23;48.39;101454.13;4966196;28;20050;-71
2023/10/18 07:34:39;;;;;;;16.13;6.13;;;;;;;7.84;47.29;101449.56;4976035;28;20030;-71
2023/10/18 07:37:32;;;;;;;7.47;4.70;;;;;;;8.18;45.49;101446.28;4974743;28;20046;-71
2023/10/18 07:40:04;;;;;;;12.38;6.15;;;;;;;8.49;44.54;101449.94;4975022;28;20038;-71
2023/10/18 07:42:40;;;;;;;8.60;4.65;;;;;;;8.82;43.92;101442.28;4975408;28;20273;-71
2023/10/18 07:45:08;;;;;;;10.00;5.18;;;;;;;8.44;44.32;101445.75;4976719;28;20544;-71
2023/10/18 07:47:40;;;;;;;10.73;5.95;;;;;;;7.98;45.32;101446.69;4974442;28;20303;-71
2023/10/18 07:50:34;;;;;;;7.38;4.20;;;;;;;7.65;46.13;101449.09;4973361;28;20334;-71
2023/10/18 07:52:54;;;;;;;12.32;5.47;;;;;;;7.94;46.25;101438.97;4973140;28;20054;-70
2023/10/18 07:55:23;;;;;;;12.27;5.00;;;;;;;7.88;46.61;101435.63;4980271;28;20616;-73
2023/10/18 07:57:49;;;;;;;7.63;4.78;;;;;;;7.95;45.96;101442.41;4962093;28;20123;-69
2023/10/18 08:00:21;;;;;;;8.57;4.25;;;;;;;7.96;46.23;101438.94;4978062;28;20030;-71
2023/10/18 08:02:49;;;;;;;11.18;4.45;;;;;;;8.58;46.07;101433.25;4974062;28;20053;-68
2023/10/18 08:05:21;;;;;;;7.10;4.25;;;;;;;9.39;43.38;101425.25;4966000;28;20533;-69
2023/10/18 08:07:51;;;;;;;9.27;4.47;;;;;;;10.41;41.00;101418.03;4970574;28;20109;-67
2023/10/18 08:10:19;;;;;;;7.30;4.78;;;;;;;10.72;40.21;101422.28;4976450;28;20034;-67
2023/10/18 08:12:57;;;;;;;8.50;3.95;;;;;;;10.59;40.56;101422.69;4973199;28;20408;-66
2023/10/18 08:15:22;;;;;;;9.32;4.88;;;;;;;10.56;39.72;101414.09;4980949;28;20128;-67
2023/10/18 08:17:50;;;;;;;7.78;4.50;;;;;;;10.67;39.32;101413.75;4979703;28;20167;-69
2023/10/18 08:22:51;;;;;;;6.95;4.93;;;;;;;10.57;40.48;101416.66;4985143;28;20057;-66
2023/10/18 08:25:31;;;;;;;10.85;4.13;;;;;;;9.96;41.57;101410.66;4980655;28;20306;-66
2023/10/18 08:27:58;;;;;;;6.57;4.38;;;;;;;9.50;41.98;101415.38;4975164;28;20551;-70
2023/10/18 08:31:03;;;;;;;7.80;4.38;;;;;;;9.65;41.77;101408.88;4980070;28;20044;-71
2023/10/18 08:33:24;;;;;;;10.45;5.70;;;;;;;9.47;42.39;101419.81;4977751;28;20046;-68
2023/10/18 08:35:58;;;;;;;10.48;5.97;;;;;;;9.57;42.78;101400.41;4966698;28;20045;-68
2023/10/18 08:38:28;;;;;;;7.25;4.15;;;;;;;9.21;42.58;101402.22;4979791;28;20090;-69
2023/10/18 08:41:13;;;;;;;8.25;4.78;;;;;;;8.63;43.89;101404.47;4964476;28;20599;-69
2023/10/18 08:44:15;;;;;;;7.13;4.95;;;;;;;8.72;44.59;101399.97;4958365;28;20069;-68
2023/10/18 08:47:04;;;;;;;6.03;4.38;;;;;;;8.71;44.76;101402.59;4957227;28;20157;-67
2023/10/18 08:49:34;;;;;;;6.80;4.65;;;;;;;8.72;44.02;101394.75;4991135;28;20193;-69
2023/10/18 08:52:08;;;;;;;5.85;4.47;;;;;;;8.64;43.20;101390.56;4977444;28;20038;-68
2023/10/18 08:54:39;;;;;;;5.07;3.15;;;;;;;8.77;43.26;101386.81;4987880;28;20037;-70
2023/10/18 08:57:09;;;;;;;10.23;3.58;;;;;;;8.65;43.85;101379.25;4987517;28;20560;-69
2023/10/18 08:59:49;;;;;;;8.68;3.50;;;;;;;8.88;43.23;101382.19;4973394;28;20030;-69
2023/10/18 09:02:23;;;;;;;6.65;3.60;;;;;;;8.37;43.63;101382.50;4974870;28;20127;-69
2023/10/18 09:04:53;;;;;;;5.55;3.42;;;;;;;8.65;43.48;101376.63;4971193;28;20370;-69
2023/10/18 09:07:22;;;;;;;5.97;3.38;;;;;;;8.77;43.69;101366.81;4966871;28;20361;-67
2023/10/18 09:09:58;;;;;;;6.10;3.30;;;;;;;8.44;43.69;101363.22;4972379;28;20030;-69
2023/10/18 09:15:56;;;;;;;4.40;2.60;;;;;;;9.01;42.13;101356.69;4973391;28;20042;-69
2023/10/18 09:18:05;;;;;;;4.22;2.55;;;;;;;9.02;41.51;101362.75;4967434;28;20050;-68
2023/10/18 09:20:31;;;;;;;3.97;2.83;;;;;;;8.54;42.49;101366.50;4977475;28;20048;-69
2023/10/18 09:23:04;;;;;;;4.25;2.95;;;;;;;8.57;41.81;101363.81;4973958;28;20516;-68
2023/10/18 09:25:47;;;;;;;5.40;3.72;;;;;;;8.63;42.72;101352.38;4979162;28;20174;-69
2023/10/18 09:28:25;;;;;;;5.65;3.30;;;;;;;8.87;42.28;101354.41;4971295;28;23099;-69
2023/10/18 09:31:41;;;;;;;5.05;2.55;;;;;;;9.12;42.28;101345.94;4971016;28;20062;-69
2023/10/18 09:33:58;;;;;;;4.63;3.40;;;;;;;8.91;42.08;101343.00;4968338;28;20057;-69
2023/10/18 09:36:24;;;;;;;6.60;3.40;;;;;;;9.23;42.06;101343.94;4976170;28;20668;-69
2023/10/18 09:38:52;;;;;;;7.38;3.35;;;;;;;9.38;41.60;101340.88;4971899;28;20053;-68
2023/10/18 09:41:19;;;;;;;5.72;3.60;;;;;;;8.76;42.13;101335.56;4981463;28;20053;-68
2023/10/18 09:43:46;;;;;;;5.22;3.58;;;;;;;8.52;42.88;101335.25;4974543;28;20054;-69
2023/10/18 09:46:13;;;;;;;8.00;3.78;;;;;;;8.38;43.11;101328.66;4975152;28;20418;-67
2023/10/18 09:48:41;;;;;;;5.50;3.60;;;;;;;8.43;42.82;101325.06;4974476;28;20053;-68
2023/10/18 09:51:09;;;;;;;5.82;3.63;;;;;;;8.59;42.49;101333.38;4976366;28;20774;-68
2023/10/18 09:53:52;;;;;;;7.55;3.75;;;;;;;9.02;42.11;101308.00;4975258;28;20054;-68
2023/10/18 09:56:24;;;;;;;6.05;4.43;;;;;;;9.25;40.54;101309.97;4978133;28;20061;-68
2023/10/18 09:58:51;;;;;;;8.40;4.00;;;;;;;9.09;41.19;101301.72;4971847;28;20498;-68
2023/10/18 10:01:29;;;;;;;8.43;4.20;;;;;;;9.25;41.45;101303.00;4984065;28;20146;-68
2023/10/18 10:03:58;;;;;;;7.55;3.42;;;;;;;9.02;41.19;101292.34;4971582;28;20579;-69
2023/10/18 10:06:26;;;;;;;7.82;4.28;;;;;;;8.79;41.56;101288.59;4967517;28;20133;-67
2023/10/18 10:09:12;;;;;;;5.50;3.30;;;;;;;8.93;42.26;101294.28;4974368;28;20115;-68
2023/10/18 10:11:47;;;;;;;5.50;3.45;;;;;;;8.91;41.33;101285.66;4977289;28;20660;-68
2023/10/18 10:14:21;;;;;;;4.30;3.20;;;;;;;8.92;40.90;101274.34;4973063;28;20302;-68
2023/10/18 10:16:52;;;;;;;7.20;4.15;;;;;;;9.20;40.57;101276.19;4974475;28;20501;-68
2023/10/18 10:19:21;;;;;;;5.45;3.40;;;;;;;9.40;40.74;101280.84;4976113;28;20117;-68
2023/10/18 10:21:47;;;;;;;7.05;4.22;;;;;;;9.72;39.76;101277.31;4990288;28;20414;-69
2023/10/18 10:30:20;;;;;;;5.65;3.95;;;;;;;8.66;41.12;101274.13;4970457;28;20038;-67
2023/10/18 10:32:46;;;;;;;5.63;3.30;;;;;;;8.72;40.99;101263.59;4988069;28;20058;-68
2023/10/18 10:35:17;;;;;;;6.68;3.50;;;;;;;8.59;41.55;101263.00;4971587;28;21381;-67
2023/10/18 10:37:53;;;;;;;5.90;3.03;;;;;;;9.14;40.34;101250.28;4974355;28;20161;-68
2023/10/18 10:43:14;;;;;;;9.50;3.17;;;;;;;9.24;40.33;101246.53;4972850;28;20074;-68
2023/10/18 10:48:15;;;;;;;5.53;3.25;;;;;;;9.27;40.74;101236.00;4972517;28;20099;-68
2023/10/18 10:50:45;;;;;;;5.15;3.30;;;;;;;9.71;39.91;101239.03;4982740;28;20042;-68
2023/10/18 10:53:33;;;;;;;4.65;4.05;;;;;;;9.63;39.50;101238.41;4974576;28;20070;-68
2023/10/18 10:56:29;;;;;;;5.72;3.70;;;;;;;9.46;40.20;101222.44;4957236;28;20033;-68
2023/10/18 11:04:25;;;;;;;4.90;3.20;;;;;;;9.60;39.67;101213.25;4969620;28;20050;-68
2023/10/18 11:06:57;;;;;;;4.93;3.33;;;;;;;9.63;40.04;101201.88;4973185;28;20042;-66
2023/10/18 11:09:34;;;;;;;4.05;2.97;;;;;;;9.83;39.31;101192.59;4977718;28;20022;-67
2023/10/18 11:12:08;;;;;;;5.00;3.08;;;;;;;9.73;39.57;101198.09;4972007;28;20069;-66
2023/10/18 11:14:37;;;;;;;4.88;3.30;;;;;;;9.73;38.80;101198.09;4978580;28;20121;-69
2023/10/18 11:17:17;;;;;;;4.43;3.33;;;;;;;9.12;40.53;101186.88;4972714;28;20038;-66
2023/10/18 11:19:55;;;;;;;4.60;3.10;;;;;;;9.56;39.87;101187.31;4990864;28;20033;-68
2023/10/18 11:22:23;;;;;;;4.68;3.95;;;;;;;9.04;39.90;101176.69;4975554;28;20065;-69
2023/10/18 11:24:50;;;;;;;6.82;3.50;;;;;;;8.95;40.42;101174.34;4979781;28;20042;-69
2023/10/18 11:27:33;;;;;;;3.55;3.22;;;;;;;9.19;40.33;101178.84;4972153;28;20049;-68
2023/10/18 11:30:15;;;;;;;5.90;3.50;;;;;;;8.87;40.41;101161.50;4969771;28;20030;-69
2023/10/18 11:32:43;;;;;;;5.30;3.92;;;;;;;9.16;40.45;101159.81;4981708;28;20104;-68
2023/10/18 11:35:09;;;;;;;4.95;3.30;;;;;;;9.10;40.36;101149.59;4975339;28;20030;-68
2023/10/18 11:37:38;;;;;;;5.15;3.00;;;;;;;9.76;39.96;101140.56;4978345;28;20035;-66
2023/10/18 11:40:30;;;;;;;7.28;3.33;;;;;;;9.93;39.21;101141.81;4974137;28;20038;-66
2023/10/18 11:43:05;;;;;;;;;;;;;;;9.24;40.07;101141.34;4973059;28;20057;-68
2023/10/18 11:45:31;;;;;;;6.82;3.22;;;;;;;8.89;40.80;101141.47;4977665;28;19917;-66
2023/10/18 11:47:59;;;;;;;5.43;3.53;;;;;;;8.99;40.72;101129.03;4976858;28;20038;-66
2023/10/18 11:50:38;;;;;;;5.47;3.65;;;;;;;9.18;40.54;101118.91;4975774;28;20105;-68
2023/10/18 11:53:12;;;;;;;5.47;3.00;;;;;;;9.05;40.92;101115.78;4971523;28;20156;-68
2023/10/18 11:55:55;;;;;;;6.32;3.53;;;;;;;8.58;40.97;101110.16;4961497;28;20033;-68
2023/10/18 11:58:32;;;;;;;3.65;2.83;;;;;;;8.72;40.90;101109.84;4971889;28;20859;-68
2023/10/18 12:01:05;;;;;;;6.30;3.60;;;;;;;8.81;41.35;101101.75;4969723;28;20030;-70
2023/10/18 12:03:33;;;;;;;4.00;3.15;;;;;;;9.08;41.32;101102.69;4979931;28;20050;-69
2023/10/18 12:06:00;;;;;;;6.53;4.43;;;;;;;9.02;41.27;101092.44;4976926;28;20101;-69
2023/10/18 12:08:30;;;;;;;5.88;3.35;;;;;;;8.84;40.91;101075.59;4978366;28;20324;-70
2023/10/18 12:10:57;;;;;;;6.15;4.43;;;;;;;9.10;40.27;101067.00;4979706;28;20524;-69
2023/10/18 12:13:24;;;;;;;4.85;3.47;;;;;;;9.12;40.88;101074.75;4975301;28;20399;-68
2023/10/18 12:15:49;;;;;;;6.40;4.07;;;;;;;9.23;40.60;101072.69;4982580;28;20034;-69
2023/10/18 12:18:15;;;;;;;7.63;3.95;;;;;;;8.94;40.38;101056.19;4963073;28;20519;-69
2023/10/18 12:20:45;;;;;;;4.45;4.00;;;;;;;8.57;41.41;101058.97;4980811;28;20046;-69
2023/10/18 12:23:13;;;;;;;4.55;3.28;;;;;;;8.35;41.34;101048.31;4975321;28;20877;-68
2023/10/18 12:25:42;;;;;;;5.88;4.07;;;;;;;8.48;42.09;101047.06;4971196;28;20053;-68
2023/10/18 12:28:17;;;;;;;4.95;3.45;;;;;;;8.93;41.42;101043.19;4977944;28;20041;-68
2023/10/18 12:30:44;;;;;;;7.57;3.72;;;;;;;8.88;41.10;101040.72;4983003;28;20038;-68
2023/10/18 12:33:33;;;;;;;5.20;3.70;;;;;;;8.93;41.00;101020.56;4980374;28;20038;-67
2023/10/18 12:36:00;;;;;;;5.30;3.38;;;;;;;8.57;41.41;101015.53;4979858;28;20049;-68
2023/10/18 12:38:31;;;;;;;5.70;4.18;;;;;;;8.92;41.40;101011.06;4978511;28;21385;-68
2023/10/18 12:41:27;;;;;;;5.10;3.90;;;;;;;8.87;41.52;100999.06;4981416;28;20445;-68
2023/10/18 12:43:53;;;;;;;5.25;3.55;;;;;;;8.52;42.05;100999.19;4986431;28;20583;-69
2023/10/18 12:46:21;;;;;;;4.38;3.85;;;;;;;8.93;41.78;100986.69;4978806;28;20351;-69
2023/10/18 12:48:51;;;;;;;5.50;4.10;;;;;;;9.03;40.92;100981.16;4986490;28;20217;-69
2023/10/18 12:51:18;;;;;;;7.20;4.32;;;;;;;9.12;41.33;100986.09;4976390;28;20156;-69